Alagoinha, Brazil
Current Conditions -  °F | °C
As of 7:00 PM on Monday 20 Oct 2014 (Local Time) from SBMO Reporting Station
Scattered Clouds Scattered Clouds  
Wind Chill: 72°   Ceiling: Unl
Heat Index: 72°   Visibility: 6mi
Dew Point: 68°   Wind: 6mph
Humidity: 88%   Direction: 70°ENE
Pressure: 29.91"   Gusts: NA
Location:  8.47°S, 36.78°W
Report Text: SBMO 202200Z 07005KT 9999 SCT020 22/20 Q1013
Loading
Personal Weather Stations






























Interactive Weather Map
Tropical Storm Tracking
New forecast layout! Learn more

10-Day Weather Forecast

Advertisements
Track Severe Weather on mobile